Time;durP1;ratioP1;P1;durP2;ratioP2;P2;SDS_P1;SDS_P2;PMS_P1;PMS_P2;Temp;Humidity;BMP_temperature;BMP_pressure;BME280_temperature;BME280_humidity;BME280_pressure;Samples;Min_cycle;Max_cycle;Signal;HPM_P1;HPM_P2
2021/12/13 00:01:58;;;;;;;22.17;12.57;;;;;;;;;;4992737;28;20046;-75
2021/12/13 00:04:23;;;;;;;25.17;13.07;;;;;;;;;;4992840;28;20038;-75
2021/12/13 00:06:54;;;;;;;23.70;14.00;;;;;;;;;;4992417;28;20034;-73
2021/12/13 00:09:24;;;;;;;23.02;13.02;;;;;;;;;;4992987;28;20385;-73
2021/12/13 00:11:57;;;;;;;24.92;13.82;;;;;;;;;;4992287;28;20049;-74
2021/12/13 00:14:33;;;;;;;23.63;12.48;;;;;;;;;;4992633;28;20041;-75
2021/12/13 00:17:13;;;;;;;25.58;13.35;;;;;;;;;;4992784;28;20473;-75
2021/12/13 00:19:45;;;;;;;22.95;13.40;;;;;;;;;;4992525;28;20042;-75
2021/12/13 00:22:15;;;;;;;23.55;12.68;;;;;;;;;;4991347;28;20393;-73
2021/12/13 00:24:45;;;;;;;21.70;12.65;;;;;;;;;;4992078;28;20050;-73
2021/12/13 00:27:13;;;;;;;23.50;12.48;;;;;;;;;;4992443;28;20050;-74
2021/12/13 00:29:54;;;;;;;23.83;13.60;;;;;;;;;;4992416;28;20074;-74
2021/12/13 00:32:26;;;;;;;22.20;12.88;;;;;;;;;;4992245;28;20054;-73
2021/12/13 00:34:57;;;;;;;24.85;13.85;;;;;;;;;;4991321;28;20041;-73
2021/12/13 00:37:30;;;;;;;28.02;13.93;;;;;;;;;;4991890;28;20054;-73
2021/12/13 00:40:00;;;;;;;22.40;13.52;;;;;;;;;;4991188;28;20461;-73
2021/12/13 00:42:36;;;;;;;24.65;13.88;;;;;;;;;;4989422;28;20057;-75
2021/12/13 00:45:07;;;;;;;25.98;13.55;;;;;;;;;;4991954;28;20041;-74
2021/12/13 00:47:35;;;;;;;26.63;13.60;;;;;;;;;;4992002;28;20033;-74
2021/12/13 00:50:07;;;;;;;24.42;13.65;;;;;;;;;;4992161;28;20035;-74
2021/12/13 00:52:35;;;;;;;24.83;13.38;;;;;;;;;;4992143;28;20042;-74
2021/12/13 00:55:08;;;;;;;28.52;14.38;;;;;;;;;;4992021;28;20026;-74
2021/12/13 00:57:44;;;;;;;27.58;14.23;;;;;;;;;;4992495;28;20492;-73
2021/12/13 01:00:09;;;;;;;24.42;13.45;;;;;;;;;;4992323;28;20057;-74
2021/12/13 01:02:47;;;;;;;26.40;13.27;;;;;;;;;;4991846;28;20038;-74
2021/12/13 01:05:18;;;;;;;23.52;13.52;;;;;;;;;;4991712;28;20049;-74
2021/12/13 01:08:02;;;;;;;30.85;13.43;;;;;;;;;;4992305;28;20034;-74
2021/12/13 01:10:53;;;;;;;24.83;13.30;;;;;;;;;;4991983;28;20042;-74
2021/12/13 01:13:24;;;;;;;22.77;12.87;;;;;;;;;;4991548;28;20232;-74
2021/12/13 01:15:56;;;;;;;;;;;;;;;;;;4991160;28;20038;-74
2021/12/13 01:18:32;;;;;;;;;;;;;;;;;;4992066;28;19920;-73
2021/12/13 01:21:15;;;;;;;25.30;14.32;;;;;;;;;;4991974;28;19914;-73
2021/12/13 01:23:50;;;;;;;24.55;12.45;;;;;;;;;;4991577;28;20065;-73
2021/12/13 01:26:35;;;;;;;24.95;13.40;;;;;;;;;;4991524;28;20042;-73
2021/12/13 01:29:07;;;;;;;24.38;13.20;;;;;;;;;;4991567;28;20042;-73
2021/12/13 01:31:40;;;;;;;28.08;13.68;;;;;;;;;;4991386;28;20073;-73
2021/12/13 01:34:07;;;;;;;22.88;13.20;;;;;;;;;;4991687;28;20400;-73
2021/12/13 01:36:56;;;;;;;22.73;12.85;;;;;;;;;;4991482;28;20034;-73
2021/12/13 01:39:25;;;;;;;21.27;12.02;;;;;;;;;;4991395;28;20072;-75
2021/12/13 01:42:00;;;;;;;21.52;12.73;;;;;;;;;;4989198;28;20042;-74
2021/12/13 01:44:31;;;;;;;21.48;11.55;;;;;;;;;;4991460;28;20061;-73
2021/12/13 01:47:08;;;;;;;23.48;12.70;;;;;;;;;;4991550;28;20346;-73
2021/12/13 01:49:41;;;;;;;23.17;12.90;;;;;;;;;;4991180;28;20034;-73
2021/12/13 01:52:21;;;;;;;23.60;13.18;;;;;;;;;;4990856;28;20042;-74
2021/12/13 01:54:48;;;;;;;26.48;13.27;;;;;;;;;;5000772;28;20053;-74
2021/12/13 01:59:51;;;;;;;21.50;13.32;;;;;;;;;;5004973;28;20038;-75
2021/12/13 02:02:29;;;;;;;24.88;13.10;;;;;;;;;;5004570;28;20042;-74
2021/12/13 02:05:10;;;;;;;24.15;13.13;;;;;;;;;;4997502;28;20038;-74
2021/12/13 02:07:51;;;;;;;26.58;13.27;;;;;;;;;;4998350;28;20026;-73
2021/12/13 02:10:35;;;;;;;22.50;12.75;;;;;;;;;;5001946;28;20038;-74
2021/12/13 02:13:14;;;;;;;24.30;13.95;;;;;;;;;;5000609;28;20057;-72
2021/12/13 02:18:31;;;;;;;26.40;13.00;;;;;;;;;;5005124;28;20034;-75
2021/12/13 02:21:06;;;;;;;21.40;13.13;;;;;;;;;;4997390;28;20042;-74
2021/12/13 02:23:37;;;;;;;25.42;13.40;;;;;;;;;;5001758;28;21050;-74
2021/12/13 02:26:05;;;;;;;28.38;14.10;;;;;;;;;;5000916;28;20058;-74
2021/12/13 02:28:36;;;;;;;23.38;13.02;;;;;;;;;;5001583;28;20457;-74
2021/12/13 02:31:10;;;;;;;22.15;13.32;;;;;;;;;;5005308;28;20054;-74
2021/12/13 02:33:52;;;;;;;23.88;13.10;;;;;;;;;;5005394;28;20041;-75
2021/12/13 02:36:32;;;;;;;21.83;12.43;;;;;;;;;;4997467;28;20057;-74
2021/12/13 02:39:04;;;;;;;22.42;13.43;;;;;;;;;;4994095;28;20049;-75
2021/12/13 02:41:31;;;;;;;24.45;12.48;;;;;;;;;;4993586;28;20053;-74
2021/12/13 02:44:05;;;;;;;20.35;11.98;;;;;;;;;;4994090;28;20042;-74
2021/12/13 02:46:33;;;;;;;22.80;13.20;;;;;;;;;;4994127;28;20073;-74
2021/12/13 02:49:03;;;;;;;20.95;12.82;;;;;;;;;;4994616;28;20038;-74
2021/12/13 02:51:43;;;;;;;24.67;13.07;;;;;;;;;;4993217;28;20049;-74
2021/12/13 02:54:36;;;;;;;26.88;13.50;;;;;;;;;;4994741;28;20049;-74
2021/12/13 02:57:12;;;;;;;22.20;12.48;;;;;;;;;;4994880;28;20388;-74
2021/12/13 02:59:46;;;;;;;21.50;12.10;;;;;;;;;;4994959;28;20042;-74
2021/12/13 03:02:47;;;;;;;18.95;12.25;;;;;;;;;;4994833;28;20476;-74
2021/12/13 03:05:18;;;;;;;20.05;11.70;;;;;;;;;;4971525;28;20057;-74
2021/12/13 03:07:48;;;;;;;21.55;11.60;;;;;;;;;;4995928;28;20405;-74
2021/12/13 03:10:22;;;;;;;20.85;11.55;;;;;;;;;;4994514;28;20053;-74
2021/12/13 03:12:48;;;;;;;21.80;12.77;;;;;;;;;;4993867;28;20026;-74
2021/12/13 03:15:18;;;;;;;24.55;11.93;;;;;;;;;;4992549;28;20046;-74
2021/12/13 03:17:50;;;;;;;21.40;11.57;;;;;;;;;;4994365;28;20038;-74
2021/12/13 03:20:18;;;;;;;22.83;11.70;;;;;;;;;;4993552;28;20042;-74
2021/12/13 03:23:10;;;;;;;20.58;11.48;;;;;;;;;;4992170;28;20535;-74
2021/12/13 03:25:39;;;;;;;22.40;12.00;;;;;;;;;;4993121;28;20050;-74
2021/12/13 03:28:33;;;;;;;17.58;10.80;;;;;;;;;;4992111;28;20408;-74
2021/12/13 03:31:08;;;;;;;20.75;10.25;;;;;;;;;;4993356;28;20069;-74
2021/12/13 03:33:50;;;;;;;18.40;10.32;;;;;;;;;;4991582;28;20039;-74
2021/12/13 03:36:22;;;;;;;15.77;10.30;;;;;;;;;;4975456;28;20049;-75
2021/12/13 03:38:52;;;;;;;17.27;10.40;;;;;;;;;;4991758;28;20049;-75
2021/12/13 03:41:21;;;;;;;20.48;11.40;;;;;;;;;;4991814;28;20380;-74
2021/12/13 03:43:53;;;;;;;21.42;11.13;;;;;;;;;;4993173;28;20408;-75
2021/12/13 03:46:23;;;;;;;22.83;11.98;;;;;;;;;;4992935;28;20038;-74
2021/12/13 03:48:52;;;;;;;25.33;12.43;;;;;;;;;;4993310;28;20688;-75
2021/12/13 03:51:23;;;;;;;21.23;11.90;;;;;;;;;;4993063;28;20049;-74
2021/12/13 03:53:52;;;;;;;23.50;11.70;;;;;;;;;;4993176;28;20049;-75
2021/12/13 03:56:22;;;;;;;25.00;13.38;;;;;;;;;;4992738;28;20030;-75
2021/12/13 03:58:52;;;;;;;23.60;12.75;;;;;;;;;;4992542;28;20049;-74
2021/12/13 04:01:49;;;;;;;20.88;11.65;;;;;;;;;;4992613;28;20038;-75
2021/12/13 04:04:28;;;;;;;19.65;10.38;;;;;;;;;;4991529;28;20046;-74
2021/12/13 04:06:58;;;;;;;20.88;10.15;;;;;;;;;;4992849;28;20039;-75
2021/12/13 04:09:28;;;;;;;23.75;10.63;;;;;;;;;;4992150;28;20456;-75
2021/12/13 04:11:58;;;;;;;19.17;10.82;;;;;;;;;;4992182;28;20038;-75
2021/12/13 04:14:32;;;;;;;23.75;12.73;;;;;;;;;;4992310;28;20065;-75
2021/12/13 04:17:21;;;;;;;21.38;11.00;;;;;;;;;;4992245;28;20438;-75
2021/12/13 04:19:55;;;;;;;22.40;12.32;;;;;;;;;;4992433;28;20038;-75
2021/12/13 04:22:27;;;;;;;21.85;11.52;;;;;;;;;;4992776;28;20528;-75
2021/12/13 04:25:13;;;;;;;20.95;12.02;;;;;;;;;;4992775;28;20046;-74
2021/12/13 04:27:44;;;;;;;22.42;12.13;;;;;;;;;;4991269;28;20038;-76
2021/12/13 04:30:19;;;;;;;19.02;10.50;;;;;;;;;;4992530;28;20046;-74
2021/12/13 04:32:51;;;;;;;18.63;11.55;;;;;;;;;;4992663;28;20042;-75
2021/12/13 04:35:17;;;;;;;20.60;11.13;;;;;;;;;;4990979;28;20057;-74
2021/12/13 04:37:50;;;;;;;21.35;11.05;;;;;;;;;;4991524;28;20472;-74
2021/12/13 04:40:23;;;;;;;19.67;12.23;;;;;;;;;;4991461;28;20051;-74
2021/12/13 04:42:54;;;;;;;23.17;12.73;;;;;;;;;;4972820;28;20602;-74
2021/12/13 04:45:23;;;;;;;22.80;13.82;;;;;;;;;;4972745;28;20401;-75
2021/12/13 04:48:05;;;;;;;19.27;12.07;;;;;;;;;;4972350;28;20068;-75
2021/12/13 04:50:54;;;;;;;21.58;12.32;;;;;;;;;;4972748;28;20045;-74
2021/12/13 04:53:29;;;;;;;25.05;13.20;;;;;;;;;;4971639;28;20543;-75
2021/12/13 04:55:59;;;;;;;20.80;12.00;;;;;;;;;;4972514;28;20049;-75
2021/12/13 04:58:26;;;;;;;19.13;11.55;;;;;;;;;;4972240;28;20389;-74
2021/12/13 05:00:56;;;;;;;19.73;11.55;;;;;;;;;;4978448;28;20038;-75
2021/12/13 05:03:28;;;;;;;20.27;11.80;;;;;;;;;;4991137;28;20049;-74
2021/12/13 05:05:54;;;;;;;22.40;12.07;;;;;;;;;;4991460;28;20051;-74
2021/12/13 05:08:21;;;;;;;25.35;12.88;;;;;;;;;;4990407;28;20038;-74
2021/12/13 05:10:49;;;;;;;20.75;11.40;;;;;;;;;;4991702;28;20038;-74
2021/12/13 05:13:31;;;;;;;23.85;12.73;;;;;;;;;;4990308;28;20030;-75
2021/12/13 05:16:08;;;;;;;21.23;11.93;;;;;;;;;;4991872;28;20034;-74
2021/12/13 05:18:39;;;;;;;24.60;12.75;;;;;;;;;;4991595;28;20034;-74
2021/12/13 05:21:12;;;;;;;21.40;11.02;;;;;;;;;;4991725;28;20035;-74
2021/12/13 05:23:47;;;;;;;23.83;11.40;;;;;;;;;;4991103;28;20372;-74
2021/12/13 05:26:27;;;;;;;21.15;12.00;;;;;;;;;;4990535;28;20046;-75
2021/12/13 05:28:53;;;;;;;23.15;11.15;;;;;;;;;;4989499;28;20341;-75
2021/12/13 05:31:22;;;;;;;22.02;11.50;;;;;;;;;;4989987;28;20026;-75
2021/12/13 05:33:55;;;;;;;22.25;10.80;;;;;;;;;;4990774;28;20030;-74
2021/12/13 05:36:29;;;;;;;22.65;11.40;;;;;;;;;;4990694;28;20501;-75
2021/12/13 05:39:11;;;;;;;19.60;11.07;;;;;;;;;;4990661;28;20026;-75
2021/12/13 05:41:38;;;;;;;19.60;10.48;;;;;;;;;;4990024;28;20045;-75
2021/12/13 05:44:09;;;;;;;22.13;12.30;;;;;;;;;;4989582;28;20042;-74
2021/12/13 05:46:47;;;;;;;23.02;12.23;;;;;;;;;;4990619;28;20481;-74
2021/12/13 05:49:21;;;;;;;21.45;12.32;;;;;;;;;;4989932;28;20042;-75
2021/12/13 05:51:53;;;;;;;18.63;10.60;;;;;;;;;;4991405;28;20046;-75
2021/12/13 05:54:27;;;;;;;;;;;;;;;;;;4991160;28;20042;-75
2021/12/13 05:56:55;;;;;;;14.88;8.52;;;;;;;;;;4990894;28;19914;-75
2021/12/13 05:59:31;;;;;;;17.50;10.20;;;;;;;;;;4989637;28;20057;-75
2021/12/13 06:02:14;;;;;;;18.75;10.65;;;;;;;;;;4989680;28;20107;-74
2021/12/13 06:04:58;;;;;;;16.48;9.45;;;;;;;;;;4987792;28;20065;-74
2021/12/13 06:07:29;;;;;;;16.67;9.13;;;;;;;;;;4988857;28;20646;-75
2021/12/13 06:10:15;;;;;;;19.57;9.43;;;;;;;;;;4990915;28;20068;-76
2021/12/13 06:12:50;;;;;;;13.75;7.70;;;;;;;;;;4974631;28;20470;-75
2021/12/13 06:15:15;;;;;;;17.25;9.15;;;;;;;;;;4991026;28;20039;-75
2021/12/13 06:18:05;;;;;;;15.70;7.82;;;;;;;;;;4985573;28;20053;-75
2021/12/13 06:20:47;;;;;;;16.67;8.60;;;;;;;;;;4985032;28;20062;-75
2021/12/13 06:23:36;;;;;;;17.35;9.15;;;;;;;;;;4990760;28;20046;-76
2021/12/13 06:26:09;;;;;;;17.38;9.88;;;;;;;;;;4976629;28;20038;-74
2021/12/13 06:28:53;;;;;;;17.95;10.10;;;;;;;;;;4985912;28;20049;-76
2021/12/13 06:31:21;;;;;;;18.45;9.82;;;;;;;;;;4994340;28;20227;-75
2021/12/13 06:34:04;;;;;;;17.20;9.65;;;;;;;;;;4993857;28;20030;-76
2021/12/13 06:36:39;;;;;;;16.85;9.80;;;;;;;;;;4993955;28;20488;-78
2021/12/13 06:39:13;;;;;;;20.75;10.25;;;;;;;;;;4982004;28;20396;-78
2021/12/13 06:41:58;;;;;;;19.65;10.48;;;;;;;;;;4993782;28;20034;-76
2021/12/13 06:44:39;;;;;;;19.83;10.85;;;;;;;;;;4993931;28;20042;-78
2021/12/13 06:47:10;;;;;;;22.17;10.75;;;;;;;;;;4979826;28;20035;-78
2021/12/13 06:49:53;;;;;;;21.75;12.40;;;;;;;;;;4991513;28;20031;-78
2021/12/13 06:52:26;;;;;;;24.05;11.55;;;;;;;;;;4991428;28;20042;-78
2021/12/13 06:55:00;;;;;;;21.33;12.00;;;;;;;;;;4992303;28;20444;-78
2021/12/13 06:57:34;;;;;;;20.67;12.02;;;;;;;;;;4993783;28;20588;-78
2021/12/13 07:00:22;;;;;;;21.10;10.38;;;;;;;;;;4993494;28;20509;-78
2021/12/13 07:02:57;;;;;;;20.50;10.75;;;;;;;;;;4992063;28;20050;-78
2021/12/13 07:05:41;;;;;;;22.30;12.30;;;;;;;;;;4991165;28;20042;-77
2021/12/13 07:08:11;;;;;;;20.92;11.55;;;;;;;;;;4992565;28;20428;-77
2021/12/13 07:10:41;;;;;;;22.85;11.52;;;;;;;;;;4993630;28;20038;-79
2021/12/13 07:13:20;;;;;;;22.40;12.27;;;;;;;;;;4993123;28;20030;-77
2021/12/13 07:16:12;;;;;;;20.30;10.27;;;;;;;;;;4986053;28;20046;-78
2021/12/13 07:19:06;;;;;;;21.55;11.50;;;;;;;;;;4994018;28;20026;-78
2021/12/13 07:21:43;;;;;;;23.23;11.35;;;;;;;;;;4975330;28;20046;-78
2021/12/13 07:24:10;;;;;;;22.23;11.70;;;;;;;;;;4989097;28;20053;-78
2021/12/13 07:26:44;;;;;;;22.25;11.63;;;;;;;;;;4977048;28;20030;-78
2021/12/13 07:29:23;;;;;;;17.92;10.95;;;;;;;;;;4986291;28;20490;-78
2021/12/13 07:32:08;;;;;;;23.20;11.60;;;;;;;;;;4986237;28;20038;-78
2021/12/13 07:34:56;;;;;;;20.77;10.43;;;;;;;;;;4991043;28;20038;-78
2021/12/13 07:37:56;;;;;;;19.88;10.38;;;;;;;;;;4993198;28;20511;-78
2021/12/13 07:40:27;;;;;;;18.55;10.35;;;;;;;;;;4977138;28;20054;-78
2021/12/13 07:43:01;;;;;;;19.35;10.77;;;;;;;;;;4988029;28;20043;-78
2021/12/13 07:45:47;;;;;;;25.77;11.25;;;;;;;;;;4983263;28;20038;-78
2021/12/13 07:48:17;;;;;;;20.15;10.52;;;;;;;;;;4993584;28;20046;-78
2021/12/13 07:50:54;;;;;;;20.75;10.82;;;;;;;;;;4977774;28;20041;-79
2021/12/13 07:53:20;;;;;;;20.00;10.88;;;;;;;;;;4976672;28;20046;-78
2021/12/13 07:55:49;;;;;;;19.15;10.07;;;;;;;;;;4992833;28;20043;-78
2021/12/13 07:58:33;;;;;;;68.55;37.10;;;;;;;;;;4993327;28;20053;-78
2021/12/13 08:01:16;;;;;;;20.88;11.23;;;;;;;;;;4988413;28;20045;-78
2021/12/13 08:03:48;;;;;;;19.60;10.60;;;;;;;;;;4983087;28;20382;-78
2021/12/13 08:06:15;;;;;;;20.63;10.63;;;;;;;;;;4983608;28;20050;-78
2021/12/13 08:08:48;;;;;;;19.27;9.95;;;;;;;;;;4986376;28;20047;-78
2021/12/13 08:11:14;;;;;;;21.23;11.52;;;;;;;;;;4985777;28;20069;-78
2021/12/13 08:13:40;;;;;;;20.98;11.57;;;;;;;;;;4973506;28;20508;-79
2021/12/13 08:16:08;;;;;;;21.23;10.88;;;;;;;;;;4979545;28;20038;-78
2021/12/13 08:18:43;;;;;;;20.52;11.15;;;;;;;;;;4992702;28;20523;-78
2021/12/13 08:21:17;;;;;;;24.63;12.85;;;;;;;;;;4989611;28;20177;-78
2021/12/13 08:23:50;;;;;;;20.33;11.10;;;;;;;;;;4992748;28;20050;-79
2021/12/13 08:26:40;;;;;;;22.35;12.23;;;;;;;;;;4991484;28;20046;-78
2021/12/13 08:29:31;;;;;;;19.33;11.15;;;;;;;;;;4992792;28;20042;-78
2021/12/13 08:32:03;;;;;;;22.13;10.77;;;;;;;;;;4983758;28;20512;-78
2021/12/13 08:34:36;;;;;;;18.75;10.88;;;;;;;;;;4975191;28;20050;-78
2021/12/13 08:37:15;;;;;;;20.45;10.35;;;;;;;;;;4990863;28;20049;-78
2021/12/13 08:39:41;;;;;;;22.45;10.57;;;;;;;;;;4991326;28;20397;-78
2021/12/13 08:42:13;;;;;;;20.25;10.48;;;;;;;;;;4991826;28;20042;-78
2021/12/13 08:44:56;;;;;;;17.77;10.05;;;;;;;;;;4991791;28;20069;-78
2021/12/13 08:47:30;;;;;;;19.27;10.10;;;;;;;;;;4992786;28;20050;-78
2021/12/13 08:50:00;;;;;;;18.92;10.60;;;;;;;;;;4991529;28;20028;-78
2021/12/13 08:52:30;;;;;;;17.27;9.63;;;;;;;;;;4991268;28;20046;-78
2021/12/13 08:55:22;;;;;;;19.67;10.77;;;;;;;;;;4993303;28;20046;-78
2021/12/13 08:58:12;;;;;;;18.75;10.70;;;;;;;;;;4983974;28;20039;-78
2021/12/13 09:01:07;;;;;;;19.10;10.73;;;;;;;;;;4992393;28;20489;-78
2021/12/13 09:03:38;;;;;;;19.65;10.93;;;;;;;;;;4990630;28;20047;-78
2021/12/13 09:06:04;;;;;;;19.52;10.73;;;;;;;;;;4991789;28;20065;-78
2021/12/13 09:08:39;;;;;;;18.67;10.10;;;;;;;;;;4991710;28;20062;-77
2021/12/13 09:11:20;;;;;;;19.35;10.40;;;;;;;;;;4991206;28;20049;-79
2021/12/13 09:13:52;;;;;;;18.20;9.52;;;;;;;;;;4991331;28;20034;-78
2021/12/13 09:16:24;;;;;;;18.80;10.52;;;;;;;;;;4991734;28;20038;-78
2021/12/13 09:19:32;;;;;;;17.83;9.82;;;;;;;;;;4991429;28;20492;-78
2021/12/13 09:22:01;;;;;;;17.38;9.63;;;;;;;;;;4949552;29;20434;-78
2021/12/13 09:24:39;;;;;;;17.58;10.18;;;;;;;;;;4984926;28;20046;-78
2021/12/13 09:27:09;;;;;;;19.30;10.80;;;;;;;;;;4991668;28;20059;-78
2021/12/13 09:30:11;;;;;;;19.90;10.15;;;;;;;;;;4990628;28;20038;-78
2021/12/13 09:32:52;;;;;;;18.10;9.95;;;;;;;;;;4969659;28;20484;-78
2021/12/13 09:35:42;;;;;;;17.15;9.98;;;;;;;;;;4990504;28;20050;-78
2021/12/13 09:38:17;;;;;;;17.17;9.98;;;;;;;;;;4991463;28;20030;-78
2021/12/13 09:40:46;;;;;;;17.05;10.30;;;;;;;;;;4990813;28;20031;-77
2021/12/13 09:43:12;;;;;;;17.35;10.40;;;;;;;;;;4990877;28;20045;-77
2021/12/13 09:45:43;;;;;;;18.58;10.25;;;;;;;;;;4991091;28;20074;-76
2021/12/13 09:48:29;;;;;;;17.10;9.52;;;;;;;;;;4990821;28;20496;-77
2021/12/13 09:51:01;;;;;;;16.70;10.25;;;;;;;;;;4990665;28;20034;-77
2021/12/13 09:53:31;;;;;;;15.45;9.25;;;;;;;;;;4990904;28;20030;-76
2021/12/13 09:56:00;;;;;;;17.73;10.18;;;;;;;;;;4991043;28;20034;-77
2021/12/13 09:58:36;;;;;;;18.75;10.57;;;;;;;;;;4991019;28;20042;-77
2021/12/13 10:01:25;;;;;;;18.98;10.27;;;;;;;;;;4989237;28;20034;-77
2021/12/13 10:03:55;;;;;;;18.02;10.07;;;;;;;;;;4990537;28;20038;-77
2021/12/13 10:06:27;;;;;;;16.35;9.73;;;;;;;;;;4991009;28;20049;-77
2021/12/13 10:09:16;;;;;;;16.90;10.10;;;;;;;;;;4990581;28;20031;-77
2021/12/13 10:11:51;;;;;;;17.27;9.73;;;;;;;;;;4989989;28;20062;-77
2021/12/13 10:14:22;;;;;;;24.10;10.27;;;;;;;;;;4991071;28;20046;-77
2021/12/13 10:16:49;;;;;;;;;;;;;;;;;;4991240;28;20138;-77
2021/12/13 10:19:24;;;;;;;17.35;9.23;;;;;;;;;;4990474;28;19921;-77
2021/12/13 10:21:51;;;;;;;17.50;9.80;;;;;;;;;;4990146;28;20492;-76
2021/12/13 10:24:22;;;;;;;15.10;9.52;;;;;;;;;;4990199;28;20061;-76
2021/12/13 10:26:51;;;;;;;16.10;9.73;;;;;;;;;;4990845;28;20034;-77
2021/12/13 10:29:20;;;;;;;19.45;12.52;;;;;;;;;;4990448;28;20054;-77
2021/12/13 10:31:59;;;;;;;19.35;13.48;;;;;;;;;;4990235;28;20040;-77
2021/12/13 10:34:34;;;;;;;18.25;10.25;;;;;;;;;;4990128;28;20039;-77
2021/12/13 10:37:12;;;;;;;20.42;14.18;;;;;;;;;;4990233;28;20543;-80
2021/12/13 10:39:43;;;;;;;17.27;10.25;;;;;;;;;;4974211;28;20043;-74
2021/12/13 10:42:14;;;;;;;18.67;12.35;;;;;;;;;;4988597;28;20042;-73
2021/12/13 10:44:44;;;;;;;17.45;9.60;;;;;;;;;;4990360;28;20053;-74
2021/12/13 10:47:30;;;;;;;19.98;10.38;;;;;;;;;;4990267;28;20385;-77
2021/12/13 10:49:59;;;;;;;16.02;8.88;;;;;;;;;;4986551;28;20046;-75
2021/12/13 10:52:29;;;;;;;14.40;9.05;;;;;;;;;;4993426;28;20043;-76
2021/12/13 10:55:05;;;;;;;16.27;9.60;;;;;;;;;;4990306;28;20032;-74
2021/12/13 10:57:36;;;;;;;18.05;11.30;;;;;;;;;;4992577;28;20472;-79
2021/12/13 11:00:06;;;;;;;;;;;;;;;;;;5009630;28;20038;-76
2021/12/13 11:02:34;;;;;;;16.85;9.80;;;;;;;;;;4992879;28;20184;-78
2021/12/13 11:05:05;;;;;;;13.00;8.88;;;;;;;;;;4993899;28;20057;-75
2021/12/13 11:07:32;;;;;;;14.57;8.70;;;;;;;;;;4993786;28;20345;-78
2021/12/13 11:09:59;;;;;;;15.05;8.93;;;;;;;;;;4993818;28;20034;-78
2021/12/13 11:12:35;;;;;;;16.85;8.82;;;;;;;;;;4994009;28;20049;-78
2021/12/13 11:15:11;;;;;;;13.75;8.32;;;;;;;;;;4992805;28;20058;-78
2021/12/13 11:17:37;;;;;;;14.15;8.40;;;;;;;;;;4994212;28;20397;-78
2021/12/13 11:20:09;;;;;;;14.68;8.25;;;;;;;;;;4993989;28;20038;-77
2021/12/13 11:22:35;;;;;;;16.40;8.68;;;;;;;;;;4994971;28;20046;-77
2021/12/13 11:25:33;;;;;;;14.38;8.77;;;;;;;;;;4994370;28;20042;-78
2021/12/13 11:28:00;;;;;;;15.13;9.20;;;;;;;;;;4994045;28;20038;-77
2021/12/13 11:30:29;;;;;;;14.82;9.02;;;;;;;;;;4993402;28;20042;-78
2021/12/13 11:32:57;;;;;;;15.23;8.65;;;;;;;;;;4992390;28;20040;-79
2021/12/13 11:36:00;;;;;;;15.48;9.10;;;;;;;;;;4993016;28;20050;-79
2021/12/13 11:38:41;;;;;;;15.80;8.77;;;;;;;;;;4991534;28;20046;-76
2021/12/13 11:41:28;;;;;;;15.95;8.90;;;;;;;;;;4991155;28;20042;-77
2021/12/13 11:44:24;;;;;;;17.60;8.98;;;;;;;;;;4990785;28;20485;-77
2021/12/13 11:47:12;;;;;;;16.40;9.13;;;;;;;;;;4992548;28;20531;-76
2021/12/13 11:50:08;;;;;;;13.85;8.82;;;;;;;;;;4993285;28;20053;-76
2021/12/13 11:53:13;;;;;;;13.50;9.07;;;;;;;;;;4990371;28;20058;-76
2021/12/13 11:55:54;;;;;;;13.65;8.70;;;;;;;;;;4989752;28;20046;-76
2021/12/13 11:58:48;;;;;;;16.08;9.20;;;;;;;;;;4992959;28;20042;-75
2021/12/13 12:01:47;;;;;;;16.70;9.43;;;;;;;;;;4993294;28;20050;-78
2021/12/13 12:04:52;;;;;;;14.20;8.98;;;;;;;;;;4993220;28;20046;-76
2021/12/13 12:07:49;;;;;;;13.43;8.20;;;;;;;;;;5029022;28;20026;-79
2021/12/13 12:10:33;;;;;;;14.10;8.25;;;;;;;;;;5016364;28;20030;-76
2021/12/13 12:13:36;;;;;;;14.27;8.02;;;;;;;;;;5014960;28;20213;-77
2021/12/13 12:16:03;;;;;;;14.52;8.93;;;;;;;;;;5015855;28;20048;-76
2021/12/13 12:18:33;;;;;;;13.95;8.52;;;;;;;;;;5001790;28;20048;-75
2021/12/13 12:21:36;;;;;;;13.38;8.30;;;;;;;;;;5013172;28;20022;-78
2021/12/13 12:24:13;;;;;;;14.25;8.75;;;;;;;;;;5017255;28;20038;-78
2021/12/13 12:26:41;;;;;;;12.82;8.23;;;;;;;;;;5016115;28;20050;-77
2021/12/13 12:29:12;;;;;;;14.57;8.45;;;;;;;;;;4991895;28;20057;-77
2021/12/13 12:31:42;;;;;;;17.08;9.05;;;;;;;;;;5010430;28;20030;-81
2021/12/13 12:34:10;;;;;;;17.35;8.65;;;;;;;;;;5013157;28;20057;-80
2021/12/13 12:36:56;;;;;;;14.90;8.50;;;;;;;;;;5015430;28;20030;-83
2021/12/13 12:39:37;;;;;;;15.07;8.57;;;;;;;;;;5003509;28;20044;-80
2021/12/13 12:42:25;;;;;;;14.98;8.27;;;;;;;;;;5014717;28;20262;-79
2021/12/13 12:44:53;;;;;;;16.13;8.88;;;;;;;;;;5013822;28;20030;-79
2021/12/13 12:47:38;;;;;;;17.80;8.70;;;;;;;;;;5017125;28;20039;-78
2021/12/13 12:50:40;;;;;;;14.85;8.73;;;;;;;;;;5015585;28;20042;-79
2021/12/13 12:53:08;;;;;;;13.73;8.13;;;;;;;;;;4993938;28;20412;-78
2021/12/13 12:56:00;;;;;;;16.63;9.07;;;;;;;;;;4995681;28;20038;-77
2021/12/13 12:58:38;;;;;;;15.35;8.95;;;;;;;;;;4987854;28;20046;-80
2021/12/13 13:01:38;;;;;;;14.82;8.85;;;;;;;;;;4987733;28;20047;-77
2021/12/13 13:04:19;;;;;;;14.57;9.00;;;;;;;;;;4999439;28;20050;-80
2021/12/13 13:07:08;;;;;;;;;;;;;;;;;;5004202;28;20050;-77
2021/12/13 13:09:49;;;;;;;12.48;7.70;;;;;;;;;;4986706;28;19925;-77
2021/12/13 13:12:27;;;;;;;14.77;9.25;;;;;;;;;;4993875;28;20049;-76
2021/12/13 13:15:00;;;;;;;13.95;8.35;;;;;;;;;;4993137;28;20034;-76
2021/12/13 13:17:29;;;;;;;16.20;8.95;;;;;;;;;;4992418;28;20038;-78
2021/12/13 13:20:05;;;;;;;15.27;9.02;;;;;;;;;;4975474;28;20046;-77
2021/12/13 13:22:35;;;;;;;15.70;9.05;;;;;;;;;;4993875;28;20050;-78
2021/12/13 13:25:14;;;;;;;15.00;9.75;;;;;;;;;;4993867;28;20417;-78
2021/12/13 13:27:40;;;;;;;15.55;9.25;;;;;;;;;;4992092;28;20030;-78
2021/12/13 13:30:15;;;;;;;16.08;9.40;;;;;;;;;;4994364;28;20042;-79
2021/12/13 13:32:42;;;;;;;15.15;8.82;;;;;;;;;;4993851;28;20043;-79
2021/12/13 13:35:09;;;;;;;13.48;8.35;;;;;;;;;;4992694;28;20042;-76
2021/12/13 13:37:40;;;;;;;15.52;9.30;;;;;;;;;;4991770;28;20485;-75
2021/12/13 13:40:06;;;;;;;22.23;12.93;;;;;;;;;;4993005;28;20416;-75
2021/12/13 13:42:37;;;;;;;16.20;9.57;;;;;;;;;;4991580;28;20036;-81
2021/12/13 13:45:10;;;;;;;17.38;9.20;;;;;;;;;;4992367;28;20053;-82
2021/12/13 13:47:41;;;;;;;16.08;9.48;;;;;;;;;;4991323;28;20051;-81
2021/12/13 13:50:27;;;;;;;16.30;9.57;;;;;;;;;;4990325;28;20042;-79
2021/12/13 13:52:56;;;;;;;17.27;10.30;;;;;;;;;;4991437;28;20394;-83
2021/12/13 13:55:41;;;;;;;15.82;9.40;;;;;;;;;;4985738;28;20061;-78
2021/12/13 13:58:16;;;;;;;16.13;9.52;;;;;;;;;;4989018;28;20034;-78
2021/12/13 14:00:55;;;;;;;14.43;8.85;;;;;;;;;;4990201;28;20476;-77
2021/12/13 14:03:26;;;;;;;14.90;8.88;;;;;;;;;;4990326;28;20826;-77
2021/12/13 14:05:54;;;;;;;14.85;9.00;;;;;;;;;;4991584;28;20361;-77
2021/12/13 14:08:25;;;;;;;15.10;9.57;;;;;;;;;;4990107;28;20030;-78
2021/12/13 14:10:54;;;;;;;14.43;8.57;;;;;;;;;;4986795;28;20034;-78
2021/12/13 14:13:22;;;;;;;16.05;8.68;;;;;;;;;;4991271;28;20030;-78
2021/12/13 14:15:51;;;;;;;14.02;8.60;;;;;;;;;;4990479;28;20037;-76
2021/12/13 14:18:23;;;;;;;14.80;8.57;;;;;;;;;;4991246;28;20038;-86
2021/12/13 14:21:02;;;;;;;15.63;8.80;;;;;;;;;;4990222;28;20030;-79
2021/12/13 14:23:33;;;;;;;16.73;8.38;;;;;;;;;;4986971;28;20031;-80
2021/12/13 14:26:03;;;;;;;13.70;8.40;;;;;;;;;;4993144;28;20043;-78
2021/12/13 14:28:37;;;;;;;12.32;8.32;;;;;;;;;;4994993;28;20037;-75
2021/12/13 14:31:10;;;;;;;13.90;8.55;;;;;;;;;;4994825;28;20476;-81
2021/12/13 14:33:40;;;;;;;14.10;8.60;;;;;;;;;;4993745;28;20030;-78
2021/12/13 14:36:19;;;;;;;12.40;7.75;;;;;;;;;;4985542;28;20030;-77
2021/12/13 14:38:55;;;;;;;15.05;8.27;;;;;;;;;;4992925;28;20027;-85
2021/12/13 14:41:28;;;;;;;14.45;8.05;;;;;;;;;;4999767;28;20030;-91
2021/12/13 14:43:58;;;;;;;14.55;8.48;;;;;;;;;;4994479;28;20035;-86
2021/12/13 14:46:29;;;;;;;13.23;8.15;;;;;;;;;;4990411;28;20256;-79
2021/12/13 14:49:27;;;;;;;;;;;;;;;;;;4995084;28;20507;-79
2021/12/13 14:52:00;;;;;;;14.10;8.00;;;;;;;;;;4970149;28;19953;-79
2021/12/13 14:54:30;;;;;;;16.08;9.07;;;;;;;;;;4973836;28;20042;-79
2021/12/13 14:57:01;;;;;;;13.70;8.73;;;;;;;;;;4974526;28;20026;-79
2021/12/13 14:59:31;;;;;;;15.73;8.75;;;;;;;;;;4974670;28;20023;-79
2021/12/13 15:01:59;;;;;;;15.35;8.63;;;;;;;;;;4989604;28;20058;-79
2021/12/13 15:04:28;;;;;;;15.23;8.95;;;;;;;;;;4992338;28;20038;-80
2021/12/13 15:07:05;;;;;;;13.55;8.98;;;;;;;;;;4991982;28;20046;-79
2021/12/13 15:09:36;;;;;;;15.20;9.05;;;;;;;;;;4994534;28;20030;-79
2021/12/13 15:12:09;;;;;;;15.73;9.40;;;;;;;;;;4994398;28;20037;-79
2021/12/13 15:14:41;;;;;;;17.88;9.57;;;;;;;;;;4994771;28;20453;-80
2021/12/13 15:17:25;;;;;;;14.70;9.23;;;;;;;;;;4994476;28;20484;-79
2021/12/13 15:19:58;;;;;;;16.17;9.70;;;;;;;;;;4994973;28;20389;-79